Time;durP1;ratioP1;P1;durP2;ratioP2;P2;SDS_P1;SDS_P2;PMS_P1;PMS_P2;Temp;Humidity;BMP_temperature;BMP_pressure;BME280_temperature;BME280_humidity;BME280_pressure;Samples;Min_cycle;Max_cycle;Signal;HPM_P1;HPM_P2
2021/04/15 00:01:29;;;;;;;17.33;9.23;;;3.00;99.90;;;;;;5070398;28;20414;-67
2021/04/15 00:03:54;;;;;;;14.90;8.88;;;1.20;99.90;;;;;;5069684;28;20868;-66
2021/04/15 00:06:25;;;;;;;14.60;8.93;;;1.20;99.90;;;;;;5070212;28;20396;-68
2021/04/15 00:08:52;;;;;;;13.00;8.10;;;1.20;99.90;;;;;;5069367;28;20415;-64
2021/04/15 00:11:20;;;;;;;13.20;8.60;;;1.10;99.90;;;;;;5070862;28;20399;-66
2021/04/15 00:13:49;;;;;;;13.73;7.97;;;1.00;99.90;;;;;;5069494;28;20395;-60
2021/04/15 00:16:16;;;;;;;13.23;8.10;;;2.00;99.90;;;;;;5070829;28;20391;-66
2021/04/15 00:18:42;;;;;;;15.25;9.13;;;1.00;99.90;;;;;;5071102;28;20415;-66
2021/04/15 00:21:09;;;;;;;16.90;9.30;;;1.10;99.90;;;;;;5068300;28;20444;-66
2021/04/15 00:23:36;;;;;;;15.93;9.93;;;1.00;99.90;;;;;;5070189;28;20376;-66
2021/04/15 00:26:03;;;;;;;15.20;9.77;;;1.10;99.90;;;;;;5069831;28;20384;-66
2021/04/15 00:28:29;;;;;;;17.83;9.80;;;1.30;99.90;;;;;;5068971;28;20423;-66
2021/04/15 00:30:54;;;;;;;16.77;10.53;;;0.90;99.90;;;;;;5068173;28;20393;-66
2021/04/15 00:33:21;;;;;;;21.05;10.90;;;0.80;99.90;;;;;;5070307;28;20415;-66
2021/04/15 00:35:47;;;;;;;16.58;10.63;;;1.90;99.90;;;;;;5068204;28;20391;-60
2021/04/15 00:38:14;;;;;;;19.13;10.82;;;2.40;99.90;;;;;;5070283;28;20387;-66
2021/04/15 00:40:42;;;;;;;20.23;11.88;;;0.60;99.90;;;;;;5069242;28;20396;-65
2021/04/15 00:43:08;;;;;;;19.00;11.52;;;0.60;99.90;;;;;;5069012;28;20818;-65
2021/04/15 00:45:43;;;;;;;19.40;11.05;;;0.60;99.90;;;;;;5069447;28;20388;-60
2021/04/15 00:48:33;;;;;;;18.17;11.52;;;0.60;99.90;;;;;;5068831;28;20423;-63
2021/04/15 00:51:07;;;;;;;17.75;11.20;;;0.60;99.90;;;;;;5069683;28;20557;-63
2021/04/15 00:53:39;;;;;;;19.20;11.27;;;0.50;99.90;;;;;;5068242;28;20398;-63
2021/04/15 00:56:06;;;;;;;17.88;11.57;;;0.50;99.90;;;;;;5069188;28;20479;-64
2021/04/15 00:58:32;;;;;;;18.23;11.50;;;0.60;99.90;;;;;;5068449;28;20430;-63
2021/04/15 01:00:59;;;;;;;16.00;10.30;;;1.80;99.90;;;;;;5068844;28;20375;-64
2021/04/15 01:03:25;;;;;;;18.02;10.70;;;0.50;99.90;;;;;;5052157;28;20437;-63
2021/04/15 01:05:51;;;;;;;16.90;10.73;;;0.60;99.90;;;;;;5067369;28;20392;-66
2021/04/15 01:08:18;;;;;;;16.87;10.60;;;0.60;99.90;;;;;;5067672;28;20481;-63
2021/04/15 01:10:49;;;;;;;19.73;10.73;;;0.50;99.90;;;;;;5069747;28;20421;-64
2021/04/15 01:13:32;;;;;;;16.70;10.32;;;0.50;99.90;;;;;;5070054;28;20402;-65
2021/04/15 01:16:17;;;;;;;16.42;9.85;;;0.50;99.90;;;;;;5067181;28;20396;-66
2021/04/15 01:19:25;;;;;;;17.45;10.48;;;0.60;99.90;;;;;;5069809;28;20474;-66
2021/04/15 01:22:15;;;;;;;17.90;11.23;;;0.60;99.90;;;;;;5067181;28;20737;-66
2021/04/15 01:24:48;;;;;;;17.50;11.10;;;0.60;99.90;;;;;;5051917;28;20991;-66
2021/04/15 01:27:21;;;;;;;19.33;10.98;;;1.20;99.90;;;;;;5067945;28;20405;-65
2021/04/15 01:30:08;;;;;;;17.20;10.85;;;0.70;99.90;;;;;;5067858;28;20404;-57
2021/04/15 01:32:45;;;;;;;19.88;10.20;;;0.60;99.90;;;;;;5069013;28;20387;-63
2021/04/15 01:35:17;;;;;;;19.25;10.82;;;0.50;99.90;;;;;;5066727;28;20490;-64
2021/04/15 01:37:46;;;;;;;17.30;11.27;;;2.90;99.90;;;;;;5069717;28;20367;-66
2021/04/15 01:40:26;;;;;;;18.80;12.23;;;0.50;99.90;;;;;;5069171;28;20841;-64
2021/04/15 01:43:04;;;;;;;19.90;11.40;;;0.40;99.90;;;;;;5066995;28;20400;-64
2021/04/15 01:45:31;;;;;;;18.10;11.00;;;2.10;99.90;;;;;;5068116;28;20478;-63
2021/04/15 01:48:05;;;;;;;19.48;10.90;;;0.30;99.90;;;;;;5068798;28;20415;-63
2021/04/15 01:50:56;;;;;;;20.70;11.30;;;2.60;99.90;;;;;;5069765;28;20375;-64
2021/04/15 01:53:34;;;;;;;18.42;11.48;;;0.30;99.90;;;;;;5059814;28;20506;-65
2021/04/15 01:56:25;;;;;;;19.48;11.35;;;0.30;99.90;;;;;;5068642;28;20889;-64
2021/04/15 01:59:30;;;;;;;19.60;11.65;;;1.40;99.90;;;;;;5067906;28;20410;-63
2021/04/15 02:02:02;;;;;;;17.52;10.52;;;0.20;99.90;;;;;;5068698;28;20382;-64
2021/04/15 02:04:31;;;;;;;20.33;11.05;;;0.10;99.90;;;;;;5067807;28;20457;-63
2021/04/15 02:07:06;;;;;;;19.70;11.30;;;1.20;99.90;;;;;;5068370;28;20405;-62
2021/04/15 02:09:34;;;;;;;17.33;11.13;;;2.60;99.90;;;;;;5049507;28;20899;-64
2021/04/15 02:12:26;;;;;;;18.35;11.00;;;0.50;99.90;;;;;;5050321;28;20384;-64
2021/04/15 02:15:05;;;;;;;16.60;10.57;;;0.00;99.90;;;;;;5068562;28;20376;-64
2021/04/15 02:17:35;;;;;;;16.85;10.30;;;0.10;99.90;;;;;;5049713;28;20391;-64
2021/04/15 02:20:05;;;;;;;17.10;10.70;;;1.50;99.90;;;;;;5068577;28;20399;-64
2021/04/15 02:22:49;;;;;;;21.00;11.38;;;0.10;99.90;;;;;;5067413;28;20392;-64
2021/04/15 02:25:55;;;;;;;17.27;9.43;;;0.00;99.90;;;;;;5067803;28;20407;-64
2021/04/15 02:28:27;;;;;;;16.60;10.35;;;0.00;99.90;;;;;;5022632;28;20501;-65
2021/04/15 02:31:12;;;;;;;16.73;10.18;;;-0.60;99.90;;;;;;5048697;28;20865;-64
2021/04/15 02:33:47;;;;;;;16.38;9.65;;;-0.10;99.90;;;;;;5064595;28;20788;-65
2021/04/15 02:36:15;;;;;;;17.10;9.85;;;-0.10;99.90;;;;;;5069112;28;20379;-65
2021/04/15 02:39:18;;;;;;;16.48;9.23;;;0.00;99.90;;;;;;5068251;28;20383;-66
2021/04/15 02:41:45;;;;;;;17.85;9.40;;;0.00;99.90;;;;;;5020257;28;20406;-66
2021/04/15 02:44:23;;;;;;;16.17;9.77;;;0.00;99.90;;;;;;5068662;28;20388;-64
2021/04/15 02:47:03;;;;;;;16.30;9.82;;;-0.10;99.90;;;;;;5066409;28;20488;-59
2021/04/15 02:49:32;;;;;;;16.93;9.70;;;-0.10;99.90;;;;;;5070794;28;20422;-63
2021/04/15 02:52:02;;;;;;;15.93;9.82;;;-0.10;99.90;;;;;;5034092;28;20381;-64
2021/04/15 02:54:37;;;;;;;17.17;10.30;;;-0.10;99.90;;;;;;5061666;28;20395;-64
2021/04/15 02:57:31;;;;;;;14.90;9.15;;;-0.20;99.90;;;;;;5071212;28;20776;-64
2021/04/15 03:00:23;;;;;;;16.17;10.00;;;2.30;99.90;;;;;;5069693;28;20403;-64
2021/04/15 03:03:14;;;;;;;15.38;9.45;;;-0.20;99.90;;;;;;5065510;28;20372;-58
2021/04/15 03:05:48;;;;;;;16.80;9.30;;;-0.20;99.90;;;;;;5072804;28;20387;-64
2021/04/15 03:08:19;;;;;;;16.23;9.63;;;-0.20;99.90;;;;;;5070042;28;20469;-65
2021/04/15 03:10:51;;;;;;;18.13;10.20;;;-0.20;99.90;;;;;;5070239;28;20910;-65
2021/04/15 03:13:29;;;;;;;19.33;10.13;;;-0.20;99.90;;;;;;5071820;28;20398;-65
2021/04/15 03:15:59;;;;;;;14.77;8.82;;;-0.20;99.90;;;;;;5069468;28;20380;-62
2021/04/15 03:18:37;;;;;;;14.23;8.80;;;-0.30;99.90;;;;;;5072030;28;20399;-64
2021/04/15 03:21:09;;;;;;;15.45;9.48;;;-0.30;99.90;;;;;;5068997;28;20388;-65
2021/04/15 03:23:51;;;;;;;16.73;9.45;;;-0.20;99.90;;;;;;5072061;28;20412;-65
2021/04/15 03:26:24;;;;;;;17.50;9.68;;;-0.20;99.90;;;;;;5070873;28;20490;-65
2021/04/15 03:29:21;;;;;;;16.13;9.07;;;-0.30;99.90;;;;;;5070369;28;20854;-59
2021/04/15 03:32:16;;;;;;;15.80;9.20;;;-0.40;99.90;;;;;;5067113;28;20487;-61
2021/04/15 03:35:01;;;;;;;16.95;9.88;;;-0.40;99.90;;;;;;5065014;28;20658;-66
2021/04/15 03:37:47;;;;;;;16.48;9.90;;;-0.30;99.90;;;;;;5071323;28;20395;-66
2021/04/15 03:40:16;;;;;;;17.63;9.98;;;-0.30;99.90;;;;;;5055285;28;20418;-65
2021/04/15 03:42:45;;;;;;;17.55;9.10;;;-0.40;99.90;;;;;;5051997;28;20450;-65
2021/04/15 03:45:36;;;;;;;19.40;10.45;;;-0.30;99.90;;;;;;5070801;28;20924;-63
2021/04/15 03:48:07;;;;;;;12.77;9.07;;;-0.30;99.90;;;;;;5060842;28;20427;-64
2021/04/15 03:51:05;;;;;;;15.32;9.80;;;-0.40;99.90;;;;;;5070040;28;20441;-64
2021/04/15 03:53:36;;;;;;;15.60;9.55;;;-0.40;99.90;;;;;;5069741;28;20392;-64
2021/04/15 03:56:06;;;;;;;16.30;9.68;;;-0.30;99.90;;;;;;5070701;28;20403;-65
2021/04/15 03:58:38;;;;;;;17.95;9.95;;;-0.40;99.90;;;;;;5071235;28;20467;-65
2021/04/15 04:01:23;;;;;;;15.20;8.60;;;-0.40;99.90;;;;;;5068351;28;20402;-64
2021/04/15 04:04:07;;;;;;;16.17;9.50;;;-0.40;99.90;;;;;;5069325;28;20486;-57
2021/04/15 04:06:41;;;;;;;16.93;10.20;;;-0.40;99.90;;;;;;5071309;28;20376;-65
2021/04/15 04:09:17;;;;;;;16.20;9.45;;;2.20;99.90;;;;;;5068400;28;20469;-64
2021/04/15 04:11:46;;;;;;;16.23;9.15;;;0.50;99.90;;;;;;5069443;28;20395;-63
2021/04/15 04:14:37;;;;;;;16.17;9.95;;;1.90;99.90;;;;;;5070435;28;20705;-64
2021/04/15 04:17:05;;;;;;;19.73;11.23;;;1.70;99.90;;;;;;5067830;28;20479;-65
2021/04/15 04:19:43;;;;;;;18.33;10.10;;;-0.60;99.90;;;;;;5071123;28;20384;-63
2021/04/15 04:22:36;;;;;;;17.27;10.15;;;1.20;99.90;;;;;;5070345;28;20502;-64
2021/04/15 04:25:20;;;;;;;19.60;10.02;;;-0.60;99.90;;;;;;5070135;28;20734;-64
2021/04/15 04:27:59;;;;;;;14.73;9.47;;;-0.60;99.90;;;;;;5070999;28;20383;-64
2021/04/15 04:31:03;;;;;;;13.07;9.20;;;-0.70;99.90;;;;;;5070594;28;20907;-64
2021/04/15 04:33:56;;;;;;;18.10;9.20;;;-0.70;99.90;;;;;;5069605;28;20415;-64
2021/04/15 04:36:25;;;;;;;13.48;8.60;;;1.10;99.90;;;;;;5067310;28;20908;-64
2021/04/15 04:38:56;;;;;;;16.50;8.98;;;-0.70;99.90;;;;;;5070320;28;20806;-57
2021/04/15 04:41:48;;;;;;;14.18;9.00;;;-0.70;99.90;;;;;;5070352;28;20387;-64
2021/04/15 04:44:30;;;;;;;14.70;8.30;;;-0.70;99.90;;;;;;5070241;28;20376;-64
2021/04/15 04:47:10;;;;;;;17.15;9.20;;;-0.70;99.90;;;;;;5069960;28;20368;-64
2021/04/15 04:49:41;;;;;;;15.27;9.30;;;-0.60;99.90;;;;;;5070500;28;20761;-62
2021/04/15 04:52:18;;;;;;;14.48;8.60;;;-0.10;99.90;;;;;;5069441;28;20416;-63
2021/04/15 04:54:44;;;;;;;17.53;9.70;;;0.90;99.90;;;;;;5060679;28;20476;-63
2021/04/15 04:57:18;;;;;;;13.43;8.50;;;-0.30;99.90;;;;;;5057917;28;20398;-63
2021/04/15 05:00:10;;;;;;;14.02;9.27;;;-0.20;99.90;;;;;;5063003;28;20415;-63
2021/04/15 05:02:35;;;;;;;15.18;8.52;;;1.20;99.90;;;;;;5070402;28;20459;-63
2021/04/15 05:05:16;;;;;;;15.75;8.75;;;0.20;99.90;;;;;;5069244;28;20470;-62
2021/04/15 05:07:44;;;;;;;14.20;8.73;;;0.00;99.90;;;;;;5051418;28;20768;-63
2021/04/15 05:10:18;;;;;;;14.52;8.70;;;0.10;99.90;;;;;;5057997;28;20976;-62
2021/04/15 05:12:47;;;;;;;15.60;9.23;;;2.30;99.90;;;;;;5070487;28;20429;-62
2021/04/15 05:15:14;;;;;;;14.88;8.30;;;1.70;99.90;;;;;;5051516;28;21210;-65
2021/04/15 05:17:41;;;;;;;12.87;7.47;;;0.80;99.90;;;;;;5070133;28;20379;-65
2021/04/15 05:20:20;;;;;;;12.93;6.93;;;1.20;99.90;;;;;;5063536;28;20396;-67
2021/04/15 05:23:15;;;;;;;12.60;7.20;;;1.30;99.90;;;;;;5060728;28;20816;-64
2021/04/15 05:25:58;;;;;;;12.05;7.05;;;1.40;99.90;;;;;;5060996;28;20423;-66
2021/04/15 05:28:23;;;;;;;10.25;6.70;;;1.60;99.90;;;;;;5060655;28;20410;-66
2021/04/15 05:30:52;;;;;;;13.43;6.43;;;2.50;99.90;;;;;;5060329;28;20375;-66
2021/04/15 05:33:21;;;;;;;11.68;7.30;;;1.90;99.90;;;;;;5058691;28;20405;-66
2021/04/15 05:36:25;;;;;;;11.30;6.70;;;2.20;99.90;;;;;;5058904;28;20443;-67
2021/04/15 05:38:57;;;;;;;10.70;6.00;;;2.50;99.90;;;;;;5066293;28;20441;-60
2021/04/15 05:41:28;;;;;;;9.95;5.68;;;2.70;99.90;;;;;;5069600;28;20387;-67
2021/04/15 05:43:58;;;;;;;9.27;5.80;;;3.30;99.90;;;;;;5069414;28;20378;-61
2021/04/15 05:46:28;;;;;;;10.90;6.10;;;3.80;99.90;;;;;;5069535;28;20372;-69
2021/04/15 05:48:58;;;;;;;10.27;5.70;;;4.30;99.90;;;;;;5067842;28;20411;-58
2021/04/15 05:51:35;;;;;;;8.93;5.30;;;5.00;99.90;;;;;;5069424;28;20375;-64
2021/04/15 05:54:08;;;;;;;9.55;5.45;;;5.60;99.90;;;;;;5061303;28;20434;-65
2021/04/15 05:56:51;;;;;;;9.50;5.50;;;6.10;99.90;;;;;;5052050;28;20415;-68
2021/04/15 05:59:41;;;;;;;8.82;5.10;;;7.00;99.90;;;;;;5068648;28;20394;-70
2021/04/15 06:02:32;;;;;;;9.07;5.30;;;8.00;99.90;;;;;;5068447;28;20459;-67
2021/04/15 06:05:12;;;;;;;8.20;4.70;;;9.40;98.70;;;;;;5068980;28;20730;-69
2021/04/15 06:07:40;;;;;;;8.80;4.93;;;9.50;96.20;;;;;;5069894;28;20419;-69
2021/04/15 06:10:07;;;;;;;10.20;5.57;;;9.80;94.90;;;;;;5068631;28;20419;-71
2021/04/15 06:12:51;;;;;;;9.97;5.60;;;9.00;94.30;;;;;;5069583;28;20462;-69
2021/04/15 06:15:28;;;;;;;10.05;5.40;;;8.00;96.60;;;;;;5068930;28;20917;-70
2021/04/15 06:18:12;;;;;;;10.40;5.40;;;7.90;99.10;;;;;;5067115;28;20383;-63
2021/04/15 06:20:42;;;;;;;8.88;5.57;;;8.80;97.80;;;;;;5069366;28;20425;-68
2021/04/15 06:23:16;;;;;;;9.20;5.20;;;9.40;96.30;;;;;;5070976;28;20371;-70
2021/04/15 06:25:50;;;;;;;8.40;5.55;;;10.30;93.50;;;;;;5071178;28;20418;-71
2021/04/15 06:28:39;;;;;;;10.07;5.80;;;10.90;91.70;;;;;;5072097;28;20457;-69
2021/04/15 06:31:23;;;;;;;10.13;5.88;;;11.70;88.70;;;;;;5069633;28;20801;-70
2021/04/15 06:33:51;;;;;;;9.95;6.15;;;12.70;82.10;;;;;;5071091;28;20435;-69
2021/04/15 06:36:37;;;;;;;9.63;6.53;;;13.30;73.80;;;;;;5071932;28;20883;-69
2021/04/15 06:39:29;;;;;;;9.80;5.65;;;13.20;71.80;;;;;;5068923;28;20869;-72
2021/04/15 06:42:26;;;;;;;11.55;5.68;;;13.40;69.90;;;;;;5070279;28;20534;-63
2021/04/15 06:45:26;;;;;;;8.82;5.60;;;14.10;68.80;;;;;;5052835;28;20490;-65
2021/04/15 06:48:10;;;;;;;8.43;5.80;;;14.10;66.60;;;;;;5072551;28;20849;-62
2021/04/15 06:51:12;;;;;;;9.90;6.00;;;15.00;61.30;;;;;;5072907;28;20367;-71
2021/04/15 06:53:57;;;;;;;12.88;6.40;;;14.50;59.80;;;;;;5071341;28;20757;-70
2021/04/15 06:56:40;;;;;;;9.70;5.80;;;14.00;61.80;;;;;;5072515;28;20394;-71
2021/04/15 06:59:09;;;;;;;9.85;5.72;;;15.20;59.60;;;;;;5070551;28;20971;-70
2021/04/15 07:02:04;;;;;;;8.43;5.32;;;14.30;60.50;;;;;;5072193;28;20376;-70
2021/04/15 07:04:45;;;;;;;8.82;5.80;;;14.80;59.60;;;;;;5072663;28;20482;-70
2021/04/15 07:07:43;;;;;;;8.45;5.60;;;14.50;59.50;;;;;;5071817;28;20388;-68
2021/04/15 07:10:25;;;;;;;12.05;6.35;;;15.20;58.50;;;;;;5071012;28;20533;-70
2021/04/15 07:13:32;;;;;;;10.57;6.30;;;14.60;58.10;;;;;;5072564;28;20933;-68
2021/04/15 07:16:39;;;;;;;10.00;5.70;;;14.10;60.00;;;;;;5071444;28;20461;-67
2021/04/15 07:19:45;;;;;;;8.32;5.47;;;13.80;60.30;;;;;;5071665;28;20379;-68
2021/04/15 07:22:29;;;;;;;11.45;5.70;;;13.50;62.50;;;;;;5071081;28;20388;-68
2021/04/15 07:25:06;;;;;;;9.35;5.80;;;14.30;61.00;;;;;;5071243;28;20407;-60
2021/04/15 07:27:52;;;;;;;8.98;5.80;;;15.80;58.50;;;;;;5072067;28;20459;-65
2021/04/15 07:30:39;;;;;;;12.07;7.00;;;16.10;55.10;;;;;;5071580;28;20430;-64
2021/04/15 07:33:36;;;;;;;8.40;5.90;;;15.50;56.70;;;;;;5052479;28;20399;-65
2021/04/15 07:36:38;;;;;;;8.93;5.70;;;15.70;56.10;;;;;;5070878;28;20422;-65
2021/04/15 07:39:55;;;;;;;9.20;6.30;;;15.30;56.70;;;;;;5052035;28;20420;-64
2021/04/15 07:42:38;;;;;;;9.15;5.20;;;15.80;56.20;;;;;;4989652;28;20450;-65
2021/04/15 07:45:17;;;;;;;7.60;4.80;;;16.10;54.40;;;;;;5070649;28;20381;-64
2021/04/15 07:48:20;;;;;;;7.90;5.17;;;16.60;52.60;;;;;;5071561;28;20379;-66
2021/04/15 07:50:49;;;;;;;9.60;4.80;;;17.50;50.70;;;;;;5053555;28;20392;-64
2021/04/15 07:53:33;;;;;;;9.27;4.93;;;17.80;50.00;;;;;;5070346;28;20384;-63
2021/04/15 07:56:11;;;;;;;9.27;5.30;;;18.20;49.20;;;;;;5070554;28;20508;-63
2021/04/15 07:58:51;;;;;;;9.25;5.00;;;18.40;49.00;;;;;;5071507;28;20931;-63
2021/04/15 08:01:35;;;;;;;8.63;5.68;;;18.60;48.00;;;;;;5070483;28;20441;-63
2021/04/15 08:04:26;;;;;;;9.60;5.50;;;19.40;46.80;;;;;;5050923;28;20388;-64
2021/04/15 08:07:37;;;;;;;9.50;5.07;;;19.60;45.70;;;;;;5050881;28;20478;-65
2021/04/15 08:10:27;;;;;;;9.32;5.60;;;19.30;45.30;;;;;;5050674;28;20409;-65
2021/04/15 08:13:19;;;;;;;7.20;5.10;;;19.90;44.90;;;;;;5050934;28;20373;-66
2021/04/15 08:15:50;;;;;;;8.67;5.10;;;21.10;42.50;;;;;;5051007;28;20370;-65
2021/04/15 08:18:16;;;;;;;9.20;5.15;;;20.80;42.00;;;;;;5050255;28;20886;-65
2021/04/15 08:20:56;;;;;;;9.18;5.60;;;19.70;42.50;;;;;;5051124;28;20416;-63
2021/04/15 08:23:40;;;;;;;11.38;5.80;;;19.30;44.10;;;;;;5050474;28;20870;-65
2021/04/15 08:26:30;;;;;;;8.00;5.10;;;20.00;42.90;;;;;;5049526;28;20420;-63
2021/04/15 08:29:23;;;;;;;10.38;5.35;;;18.20;43.80;;;;;;5050097;28;20449;-57
2021/04/15 08:32:07;;;;;;;9.50;5.55;;;17.50;44.90;;;;;;5050405;28;20895;-61
2021/04/15 08:34:55;;;;;;;7.68;5.03;;;17.40;45.20;;;;;;5050829;28;20936;-62
2021/04/15 08:37:58;;;;;;;11.32;5.10;;;17.30;46.10;;;;;;5050112;28;20377;-62
2021/04/15 08:40:32;;;;;;;9.48;5.25;;;18.40;45.70;;;;;;5050646;28;20495;-62
2021/04/15 08:43:32;;;;;;;10.43;5.15;;;18.40;43.20;;;;;;5050063;28;20902;-60
2021/04/15 08:46:15;;;;;;;9.50;5.57;;;18.10;43.80;;;;;;5048958;28;20385;-59
2021/04/15 08:48:56;;;;;;;8.00;5.05;;;18.50;43.90;;;;;;5050722;28;20401;-62
2021/04/15 08:51:43;;;;;;;9.45;5.63;;;19.10;42.60;;;;;;5050061;28;20439;-61
2021/04/15 08:54:18;;;;;;;7.82;5.20;;;19.30;42.10;;;;;;5049704;28;20480;-64
2021/04/15 08:57:09;;;;;;;9.70;4.82;;;19.80;41.60;;;;;;5049175;28;20394;-63
2021/04/15 09:00:02;;;;;;;9.30;5.05;;;20.50;40.80;;;;;;5057147;28;20862;-64
2021/04/15 09:02:37;;;;;;;9.82;5.03;;;20.60;40.10;;;;;;5069051;28;20368;-60
2021/04/15 09:05:16;;;;;;;8.65;5.20;;;19.20;41.50;;;;;;5068284;28;20379;-61
2021/04/15 09:08:05;;;;;;;9.30;5.65;;;18.90;42.70;;;;;;5069299;28;20426;-61
2021/04/15 09:10:59;;;;;;;7.70;4.70;;;18.80;42.40;;;;;;5068556;28;20396;-63
2021/04/15 09:13:53;;;;;;;9.27;5.40;;;19.30;42.30;;;;;;5068714;28;20408;-60
2021/04/15 09:16:32;;;;;;;8.82;5.00;;;19.10;42.90;;;;;;5049173;28;20370;-63
2021/04/15 09:19:11;;;;;;;9.90;5.68;;;19.40;41.70;;;;;;5049659;28;20385;-59
2021/04/15 09:21:52;;;;;;;8.30;5.50;;;18.50;43.50;;;;;;5068004;28;20500;-61
2021/04/15 09:24:31;;;;;;;8.20;4.13;;;19.10;41.90;;;;;;5066532;28;20450;-62
2021/04/15 09:27:19;;;;;;;8.43;4.50;;;20.70;40.40;;;;;;5069497;28;20395;-61
2021/04/15 09:30:06;;;;;;;9.85;4.80;;;20.60;38.90;;;;;;5067195;28;20957;-63
2021/04/15 09:32:47;;;;;;;7.68;4.05;;;19.70;40.90;;;;;;5069502;28;20571;-63
2021/04/15 09:35:45;;;;;;;9.30;5.80;;;20.00;39.30;;;;;;5066572;28;20445;-63
2021/04/15 09:38:33;;;;;;;7.70;4.43;;;20.40;39.70;;;;;;5068929;28;20368;-63
2021/04/15 09:41:35;;;;;;;8.00;4.40;;;20.70;39.70;;;;;;5066761;28;20399;-61
2021/04/15 09:44:25;;;;;;;7.47;4.40;;;21.30;38.90;;;;;;5068451;28;20375;-62
2021/04/15 09:47:06;;;;;;;7.30;4.30;;;19.90;38.10;;;;;;5069089;28;20436;-60
2021/04/15 09:49:53;;;;;;;8.93;4.80;;;18.00;39.80;;;;;;5069352;28;20465;-62
2021/04/15 09:52:52;;;;;;;9.60;4.90;;;16.50;42.20;;;;;;5068523;28;20448;-62
2021/04/15 09:55:28;;;;;;;9.88;4.80;;;13.80;45.20;;;;;;5068671;28;20391;-62
2021/04/15 09:58:18;;;;;;;10.05;4.63;;;11.70;47.60;;;;;;5069064;28;20368;-62
2021/04/15 10:00:52;;;;;;;8.30;3.95;;;11.10;50.10;;;;;;5069294;28;20853;-62
2021/04/15 10:03:32;;;;;;;9.25;4.40;;;10.90;51.70;;;;;;5068041;28;20376;-62
2021/04/15 10:06:08;;;;;;;10.90;4.80;;;11.20;51.80;;;;;;5068462;28;20429;-58
2021/04/15 10:08:40;;;;;;;8.50;4.50;;;12.00;51.20;;;;;;5068811;28;20415;-59
2021/04/15 10:11:40;;;;;;;8.43;4.28;;;11.90;50.10;;;;;;5068487;28;20380;-58
2021/04/15 10:14:33;;;;;;;8.07;4.30;;;11.60;49.80;;;;;;5050041;28;20846;-61
2021/04/15 10:17:40;;;;;;;8.07;4.93;;;11.40;51.30;;;;;;5068305;28;20429;-58
2021/04/15 10:20:26;;;;;;;9.60;4.80;;;12.00;52.70;;;;;;5068292;28;20379;-62
2021/04/15 10:23:16;;;;;;;12.48;5.55;;;13.80;50.40;;;;;;5069123;28;20375;-62
2021/04/15 10:25:49;;;;;;;7.80;4.90;;;14.60;48.20;;;;;;5069739;28;20396;-62
2021/04/15 10:28:42;;;;;;;7.47;4.45;;;14.20;47.90;;;;;;5068236;28;20467;-60
2021/04/15 10:31:13;;;;;;;8.75;4.20;;;13.40;46.60;;;;;;5068190;28;20411;-59
2021/04/15 10:33:48;;;;;;;8.50;4.10;;;12.80;48.50;;;;;;5068911;28;20449;-62
2021/04/15 10:36:41;;;;;;;8.45;4.80;;;13.60;49.00;;;;;;5068403;28;20413;-62
2021/04/15 10:39:44;;;;;;;8.77;4.40;;;14.10;48.20;;;;;;5068739;28;20522;-59
2021/04/15 10:42:47;;;;;;;9.55;4.57;;;13.10;48.90;;;;;;5067907;28;20383;-59
2021/04/15 10:45:32;;;;;;;9.85;4.55;;;13.30;50.40;;;;;;5067717;28;20383;-61
2021/04/15 10:48:27;;;;;;;8.23;4.70;;;13.80;49.20;;;;;;5068566;28;20850;-61
2021/04/15 10:51:01;;;;;;;9.80;4.60;;;14.30;47.80;;;;;;5069032;28;20367;-62
2021/04/15 10:53:45;;;;;;;9.35;4.90;;;14.20;49.90;;;;;;5068828;28;20467;-62
2021/04/15 10:56:23;;;;;;;8.63;4.10;;;14.20;50.20;;;;;;5067733;28;20486;-62
2021/04/15 10:59:25;;;;;;;11.20;4.10;;;14.00;50.10;;;;;;5068743;28;20445;-62
2021/04/15 11:02:36;;;;;;;6.38;3.35;;;14.20;48.30;;;;;;5068579;28;20486;-62
2021/04/15 11:05:23;;;;;;;10.07;4.10;;;13.40;47.00;;;;;;5054438;28;20399;-58
2021/04/15 11:07:51;;;;;;;7.97;4.13;;;12.70;49.50;;;;;;5068681;28;20402;-59
2021/04/15 11:10:30;;;;;;;6.90;3.45;;;12.40;50.80;;;;;;5071610;28;20537;-62
2021/04/15 11:13:18;;;;;;;8.60;4.50;;;11.50;50.60;;;;;;5072886;28;20379;-60
2021/04/15 11:15:51;;;;;;;8.10;3.60;;;12.00;50.70;;;;;;5071716;28;20434;-60
2021/04/15 11:18:33;;;;;;;7.03;4.07;;;12.40;50.80;;;;;;5071770;28;20437;-60
2021/04/15 11:21:21;;;;;;;9.95;3.80;;;12.10;50.60;;;;;;5054052;28;20799;-60
2021/04/15 11:23:49;;;;;;;7.40;4.10;;;12.10;51.40;;;;;;5071897;28;20407;-60
2021/04/15 11:26:44;;;;;;;9.00;3.95;;;12.60;51.50;;;;;;5071378;28;20380;-60
2021/04/15 11:29:35;;;;;;;10.40;4.32;;;12.50;52.10;;;;;;5071191;28;20450;-60
2021/04/15 11:32:19;;;;;;;7.22;3.97;;;12.60;52.20;;;;;;5071426;28;20865;-58
2021/04/15 11:35:09;;;;;;;9.02;4.38;;;13.00;51.40;;;;;;5071182;28;20461;-60
2021/04/15 11:37:37;;;;;;;9.32;5.50;;;12.90;52.40;;;;;;5071835;28;20531;-62
2021/04/15 11:40:31;;;;;;;6.97;3.53;;;13.70;51.00;;;;;;5070998;28;20873;-61
2021/04/15 11:42:58;;;;;;;7.10;3.40;;;13.70;44.20;;;;;;5070122;28;20395;-62
2021/04/15 11:45:33;;;;;;;8.95;4.55;;;13.40;46.30;;;;;;5071238;28;20378;-60
2021/04/15 11:48:23;;;;;;;6.78;3.97;;;13.40;48.50;;;;;;5069607;28;20501;-58
2021/04/15 11:51:08;;;;;;;9.15;4.00;;;13.40;48.10;;;;;;5071465;28;20448;-60
2021/04/15 11:53:55;;;;;;;7.87;4.20;;;12.90;49.70;;;;;;5069344;28;20392;-60
2021/04/15 11:56:29;;;;;;;6.85;3.67;;;13.00;48.60;;;;;;5070738;28;21014;-60
2021/04/15 11:59:13;;;;;;;6.85;3.50;;;12.50;47.60;;;;;;5069595;28;20435;-62
2021/04/15 12:01:38;;;;;;;5.82;3.13;;;11.90;48.70;;;;;;5071535;28;20383;-62
2021/04/15 12:04:08;;;;;;;8.90;3.33;;;11.80;49.60;;;;;;5069630;28;20395;-60
2021/04/15 12:06:48;;;;;;;6.88;3.30;;;11.70;48.00;;;;;;5070096;28;20387;-62
2021/04/15 12:09:18;;;;;;;6.30;3.50;;;11.70;48.20;;;;;;5068622;28;20412;-61
2021/04/15 12:12:15;;;;;;;6.72;3.60;;;11.70;47.20;;;;;;5071440;28;20415;-60
2021/04/15 12:14:41;;;;;;;8.23;3.60;;;11.90;48.20;;;;;;5051318;28;20408;-62
2021/04/15 12:17:10;;;;;;;6.22;3.60;;;12.00;48.20;;;;;;5070208;28;20384;-61
2021/04/15 12:19:39;;;;;;;7.67;3.73;;;11.90;48.90;;;;;;5069001;28;20396;-60
2021/04/15 12:22:37;;;;;;;7.03;3.67;;;11.80;49.70;;;;;;5070001;28;20412;-61
2021/04/15 12:25:24;;;;;;;8.95;4.40;;;11.70;50.30;;;;;;5068970;28;20445;-60
2021/04/15 12:27:57;;;;;;;7.95;3.80;;;11.80;48.80;;;;;;5070439;28;20726;-61
2021/04/15 12:30:32;;;;;;;8.48;4.20;;;11.40;49.70;;;;;;5070018;28;20561;-62
2021/04/15 12:33:04;;;;;;;7.80;4.00;;;11.70;49.10;;;;;;5069121;28;20387;-60
2021/04/15 12:35:43;;;;;;;6.30;3.60;;;12.10;49.80;;;;;;5070824;28;20399;-60
2021/04/15 12:38:15;;;;;;;7.60;3.90;;;12.20;50.30;;;;;;5070351;28;20768;-61
2021/04/15 12:40:43;;;;;;;7.63;4.18;;;12.30;50.20;;;;;;5070509;28;20396;-60
2021/04/15 12:43:17;;;;;;;8.73;4.00;;;12.50;50.40;;;;;;5069826;28;20431;-60
2021/04/15 12:45:51;;;;;;;8.30;3.45;;;12.30;51.80;;;;;;5070478;28;20396;-62
2021/04/15 12:48:56;;;;;;;8.80;4.20;;;11.00;54.30;;;;;;5069761;28;20449;-62
2021/04/15 12:51:25;;;;;;;8.80;4.30;;;10.70;56.30;;;;;;5069873;28;20475;-63
2021/04/15 12:53:54;;;;;;;8.25;4.50;;;10.60;58.30;;;;;;5070740;28;20380;-62
2021/04/15 12:56:39;;;;;;;7.20;4.10;;;10.20;59.00;;;;;;5069877;28;20390;-62
2021/04/15 12:59:07;;;;;;;9.35;4.10;;;10.20;59.00;;;;;;5052145;28;20474;-62
2021/04/15 13:01:38;;;;;;;8.17;3.90;;;10.10;59.10;;;;;;5070079;28;20459;-62
2021/04/15 13:04:24;;;;;;;6.80;3.80;;;9.90;60.20;;;;;;5051562;28;20521;-60
2021/04/15 13:07:13;;;;;;;7.25;3.83;;;9.80;59.10;;;;;;5070510;28;20408;-62
2021/04/15 13:09:45;;;;;;;8.25;4.00;;;9.90;59.20;;;;;;5070263;28;20399;-63
2021/04/15 13:12:31;;;;;;;7.78;4.00;;;9.50;63.90;;;;;;5051368;28;20392;-61
2021/04/15 13:14:59;;;;;;;8.38;3.80;;;9.20;68.60;;;;;;5070211;28;20388;-62
2021/04/15 13:17:57;;;;;;;9.18;4.20;;;9.00;75.10;;;;;;5069135;28;20445;-61
2021/04/15 13:20:23;;;;;;;7.93;3.60;;;8.70;77.20;;;;;;5069191;28;21057;-60
2021/04/15 13:23:15;;;;;;;7.20;4.05;;;8.50;79.40;;;;;;5070012;28;20379;-60
2021/04/15 13:25:50;;;;;;;7.13;3.67;;;8.10;80.20;;;;;;5070140;28;20400;-60
2021/04/15 13:28:17;;;;;;;7.45;3.50;;;8.10;77.60;;;;;;5069134;28;20396;-62
2021/04/15 13:30:43;;;;;;;8.13;3.60;;;8.30;78.30;;;;;;5051550;28;20396;-62
2021/04/15 13:33:13;;;;;;;6.67;3.57;;;8.60;70.60;;;;;;5068615;28;20445;-62
2021/04/15 13:35:53;;;;;;;6.28;3.10;;;8.80;64.60;;;;;;5070251;28;20375;-63
2021/04/15 13:41:29;;;;;;;6.30;3.30;;;9.40;62.50;;;;;;5069432;28;20686;-61
2021/04/15 13:44:06;;;;;;;6.25;2.70;;;9.70;63.20;;;;;;5069984;28;20368;-62
2021/04/15 13:46:43;;;;;;;6.50;3.10;;;8.20;60.40;;;;;;5069547;28;20379;-62
2021/04/15 13:49:09;;;;;;;6.93;2.90;;;9.40;62.40;;;;;;5068834;28;20403;-62
2021/04/15 13:51:52;;;;;;;6.30;3.25;;;9.40;60.60;;;;;;5069834;28;20376;-62
2021/04/15 13:54:37;;;;;;;6.97;3.60;;;9.50;62.70;;;;;;5069094;28;20863;-63